createdAt,value
2023-05-28T00:02:23.972Z,58.10
2023-05-28T00:04:51.145Z,58.30
2023-05-28T00:07:18.132Z,58.60
2023-05-28T00:09:45.181Z,58.90
2023-05-28T00:12:13.286Z,59.10
2023-05-28T00:14:40.642Z,59.30
2023-05-28T00:17:07.990Z,59.60
2023-05-28T00:19:35.071Z,59.80
2023-05-28T00:22:02.140Z,60.00
2023-05-28T00:24:29.146Z,60.40
2023-05-28T00:26:56.160Z,60.70
2023-05-28T00:29:25.426Z,61.10
2023-05-28T00:31:55.964Z,61.40
2023-05-28T00:34:27.080Z,61.60
2023-05-28T00:36:54.850Z,62.10
2023-05-28T00:39:22.349Z,62.10
2023-05-28T00:41:49.305Z,62.40
2023-05-28T00:44:16.250Z,62.60
2023-05-28T00:46:46.511Z,62.90
2023-05-28T00:49:14.193Z,63.40
2023-05-28T00:51:42.079Z,63.50
2023-05-28T00:54:09.333Z,63.70
2023-05-28T00:56:36.377Z,64.00
2023-05-28T00:59:05.543Z,64.20
2023-05-28T01:01:33.222Z,64.40
2023-05-28T01:04:02.069Z,64.60
2023-05-28T01:06:30.364Z,64.80
2023-05-28T01:08:57.851Z,65.10
2023-05-28T01:11:25.667Z,65.30
2023-05-28T01:13:53.439Z,65.60
2023-05-28T01:16:20.793Z,65.80
2023-05-28T01:18:48.440Z,66.10
2023-05-28T01:21:17.562Z,66.30
2023-05-28T01:23:48.635Z,66.60
2023-05-28T01:26:17.393Z,66.70
2023-05-28T01:28:49.597Z,67.00
2023-05-28T01:31:17.916Z,67.30
2023-05-28T01:33:45.834Z,67.30
2023-05-28T01:36:20.955Z,67.50
2023-05-28T01:39:10.488Z,68.00
2023-05-28T01:45:36.007Z,68.70
2023-05-28T01:48:03.191Z,68.00
2023-05-28T01:50:31.389Z,68.30
2023-05-28T01:53:00.379Z,68.60
2023-05-28T01:55:27.738Z,68.80
2023-05-28T01:57:54.746Z,69.00
2023-05-28T02:00:23.592Z,69.20
2023-05-28T02:02:53.774Z,69.40
2023-05-28T02:05:21.582Z,69.60
2023-05-28T02:07:49.014Z,69.80
2023-05-28T02:10:16.318Z,70.00
2023-05-28T02:12:43.416Z,70.20
2023-05-28T02:15:12.166Z,70.30
2023-05-28T02:17:39.326Z,70.50
2023-05-28T02:20:07.173Z,70.60
2023-05-28T02:22:34.256Z,70.80
2023-05-28T02:25:01.285Z,70.90
2023-05-28T02:27:28.324Z,71.00
2023-05-28T02:29:55.634Z,71.20
2023-05-28T02:32:23.898Z,71.40
2023-05-28T02:34:51.775Z,71.60
2023-05-28T02:37:18.730Z,71.60
2023-05-28T02:39:46.196Z,71.70
2023-05-28T02:42:13.292Z,72.60
2023-05-28T02:44:40.381Z,72.00
2023-05-28T02:47:08.037Z,72.10
2023-05-28T02:49:35.449Z,72.20
2023-05-28T02:52:02.901Z,72.30
2023-05-28T02:54:35.563Z,72.40
2023-05-28T02:57:03.725Z,72.60
2023-05-28T02:59:30.694Z,72.60
2023-05-28T03:01:58.074Z,72.70
2023-05-28T03:04:26.097Z,72.80
2023-05-28T03:06:53.383Z,72.90
2023-05-28T03:09:20.384Z,73.00
2023-05-28T03:11:47.434Z,73.20
2023-05-28T03:14:14.505Z,73.30
2023-05-28T03:16:41.768Z,73.50
2023-05-28T03:19:18.438Z,73.60
2023-05-28T03:21:45.465Z,73.70
2023-05-28T03:24:14.334Z,73.80
2023-05-28T03:26:44.964Z,73.80
2023-05-28T03:29:14.800Z,74.10
2023-05-28T03:32:00.260Z,74.20
2023-05-28T03:34:28.021Z,74.30
2023-05-28T03:36:54.995Z,74.50
2023-05-28T03:39:23.493Z,74.60
2023-05-28T03:41:52.577Z,74.70
2023-05-28T03:44:21.697Z,74.80
2023-05-28T03:46:49.291Z,74.80
2023-05-28T03:49:17.410Z,74.90
2023-05-28T03:51:44.473Z,74.90
2023-05-28T03:54:11.541Z,75.00
2023-05-28T03:56:38.544Z,75.00
2023-05-28T03:59:07.144Z,75.00
2023-05-28T04:01:35.333Z,75.00
2023-05-28T04:04:02.926Z,75.10
2023-05-28T04:06:32.625Z,75.10
2023-05-28T04:08:59.886Z,75.10
2023-05-28T04:11:29.988Z,75.20
2023-05-28T04:13:58.009Z,75.10
2023-05-28T04:16:25.331Z,75.10
2023-05-28T04:18:53.198Z,75.10
2023-05-28T04:21:24.387Z,75.00
2023-05-28T04:23:52.304Z,75.00
2023-05-28T04:26:21.712Z,74.90
2023-05-28T04:28:49.661Z,74.90
2023-05-28T04:31:17.293Z,74.80
2023-05-28T04:33:47.229Z,74.60
2023-05-28T04:36:14.854Z,74.50
2023-05-28T04:38:43.007Z,74.40
2023-05-28T04:41:10.224Z,74.20
2023-05-28T04:43:37.319Z,74.10
2023-05-28T04:46:05.195Z,73.90
2023-05-28T04:48:32.904Z,73.80
2023-05-28T04:51:01.442Z,73.50
2023-05-28T04:53:28.471Z,73.30
2023-05-28T04:55:56.644Z,73.20
2023-05-28T04:58:23.634Z,73.00
2023-05-28T05:00:52.181Z,72.80
2023-05-28T05:03:19.329Z,72.50
2023-05-28T05:05:46.444Z,72.30
2023-05-28T05:08:14.736Z,72.10
2023-05-28T05:10:43.589Z,71.90
2023-05-28T05:13:10.687Z,71.60
2023-05-28T05:15:37.732Z,71.20
2023-05-28T05:18:05.760Z,70.70
2023-05-28T05:20:33.015Z,70.40
2023-05-28T05:23:00.031Z,70.00
2023-05-28T05:25:27.847Z,69.80
2023-05-28T05:27:56.337Z,69.40
2023-05-28T05:30:23.415Z,69.00
2023-05-28T05:32:50.805Z,68.60
2023-05-28T05:35:18.193Z,68.20
2023-05-28T05:38:03.606Z,67.80
2023-05-28T05:40:50.190Z,67.40
2023-05-28T05:43:35.682Z,67.10
2023-05-28T05:46:02.908Z,66.40
2023-05-28T05:48:30.305Z,65.80
2023-05-28T05:50:59.343Z,65.00
2023-05-28T05:53:27.968Z,64.60
2023-05-28T05:55:55.773Z,64.00
2023-05-28T05:58:23.639Z,63.20
2023-05-28T06:00:50.664Z,62.40
2023-05-28T06:03:18.566Z,61.90
2023-05-28T06:06:13.076Z,61.30
2023-05-28T06:08:58.995Z,60.10
2023-05-28T06:11:38.416Z,59.40
2023-05-28T06:14:05.798Z,59.00
2023-05-28T06:16:33.005Z,58.50
2023-05-28T06:19:00.260Z,58.30
2023-05-28T06:21:27.328Z,57.80
2023-05-28T06:23:55.367Z,57.30
2023-05-28T06:26:23.318Z,56.90
2023-05-28T06:28:50.627Z,56.50
2023-05-28T06:31:18.276Z,56.30
2023-05-28T06:33:46.461Z,55.70
2023-05-28T06:36:13.798Z,55.20
2023-05-28T06:38:41.096Z,54.60
2023-05-28T06:41:08.727Z,54.10
2023-05-28T06:43:43.378Z,53.80
2023-05-28T06:46:17.208Z,53.30
2023-05-28T06:48:44.323Z,52.80
2023-05-28T06:51:11.957Z,51.90
2023-05-28T06:53:40.073Z,51.20
2023-05-28T06:56:07.689Z,50.20
2023-05-28T06:58:35.021Z,50.00
2023-05-28T07:01:08.196Z,49.60
2023-05-28T07:04:01.971Z,49.20
2023-05-28T07:06:41.081Z,48.60
2023-05-28T07:09:12.010Z,48.00
2023-05-28T07:11:39.708Z,47.70
2023-05-28T07:14:06.863Z,47.20
2023-05-28T07:16:34.126Z,47.00
2023-05-28T07:19:01.366Z,46.30
2023-05-28T07:21:28.714Z,45.50
2023-05-28T07:23:55.769Z,45.10
2023-05-28T07:26:23.293Z,43.90
2023-05-28T07:28:50.376Z,43.50
2023-05-28T07:31:19.592Z,42.60
2023-05-28T07:33:46.628Z,42.30
2023-05-28T07:36:15.498Z,41.80
2023-05-28T07:38:43.870Z,41.00
2023-05-28T07:41:11.183Z,39.90
2023-05-28T07:43:53.445Z,39.90
2023-05-28T07:46:26.398Z,39.40
2023-05-28T07:49:03.340Z,38.60
2023-05-28T07:51:43.580Z,37.90
2023-05-28T07:54:20.439Z,37.40
2023-05-28T07:56:49.614Z,37.00
2023-05-28T07:59:24.041Z,36.80
2023-05-28T08:01:52.399Z,36.50
2023-05-28T08:04:20.071Z,35.70
2023-05-28T08:06:47.820Z,35.40
2023-05-28T08:09:18.742Z,34.50
2023-05-28T08:11:50.172Z,34.00
2023-05-28T08:14:19.177Z,33.70
2023-05-28T08:16:48.960Z,33.20
2023-05-28T08:19:27.453Z,32.60
2023-05-28T08:21:58.728Z,32.00
2023-05-28T08:24:26.265Z,31.60
2023-05-28T08:26:54.825Z,30.90
2023-05-28T08:29:23.616Z,30.70
2023-05-28T08:31:59.188Z,30.10
2023-05-28T08:34:30.906Z,29.80
2023-05-28T08:36:59.059Z,29.40
2023-05-28T08:39:32.176Z,28.70
2023-05-28T08:41:59.448Z,28.00
2023-05-28T08:44:26.793Z,27.00
2023-05-28T08:46:56.691Z,26.60
2023-05-28T08:49:54.348Z,26.00
2023-05-28T08:52:27.057Z,25.30
2023-05-28T08:54:54.222Z,25.70
2023-05-28T08:57:22.416Z,25.20
2023-05-28T09:00:00.995Z,24.80
2023-05-28T09:02:28.642Z,24.50
2023-05-28T09:04:58.210Z,24.20
2023-05-28T09:07:27.432Z,23.90
2023-05-28T09:09:59.175Z,23.50
2023-05-28T09:12:30.592Z,23.40
2023-05-28T09:15:02.249Z,23.10
2023-05-28T09:17:40.358Z,22.70
2023-05-28T09:20:22.605Z,21.70
2023-05-28T09:23:00.978Z,21.50
2023-05-28T09:25:57.622Z,20.90
2023-05-28T09:28:30.099Z,21.00
2023-05-28T09:31:05.703Z,21.20
2023-05-28T09:33:33.841Z,20.60
2023-05-28T09:36:03.052Z,21.70
2023-05-28T09:38:43.781Z,20.20
2023-05-28T09:41:25.787Z,19.00
2023-05-28T09:44:01.514Z,19.20
2023-05-28T09:46:35.055Z,18.60
2023-05-28T09:49:03.804Z,18.30
2023-05-28T09:51:32.743Z,18.50
2023-05-28T09:54:02.839Z,18.10
2023-05-28T09:56:34.347Z,18.00
2023-05-28T09:59:04.084Z,17.70
2023-05-28T10:02:18.169Z,17.40
2023-05-28T10:04:49.172Z,16.50
2023-05-28T10:07:17.358Z,17.10
2023-05-28T10:09:45.324Z,16.80
2023-05-28T10:12:19.587Z,16.70
2023-05-28T10:14:48.242Z,16.00
2023-05-28T10:17:16.218Z,15.50
2023-05-28T10:19:47.281Z,15.80
2023-05-28T10:22:15.632Z,16.00
2023-05-28T10:24:43.997Z,15.70
2023-05-28T10:27:20.131Z,15.90
2023-05-28T10:29:48.488Z,15.70
2023-05-28T10:32:17.014Z,15.90
2023-05-28T10:34:44.979Z,15.40
2023-05-28T10:37:14.441Z,14.90
2023-05-28T10:39:48.781Z,14.80
2023-05-28T10:42:19.348Z,15.10
2023-05-28T10:45:04.278Z,15.00
2023-05-28T10:47:41.997Z,14.50
2023-05-28T10:52:42.924Z,14.60
2023-05-28T10:55:13.307Z,14.60
2023-05-28T10:57:48.324Z,14.20
2023-05-28T11:00:26.035Z,13.90
2023-05-28T11:02:55.098Z,13.70
2023-05-28T11:05:28.398Z,13.80
2023-05-28T11:07:56.919Z,14.10
2023-05-28T11:10:24.705Z,13.60
2023-05-28T11:12:52.138Z,13.60
2023-05-28T11:15:19.217Z,13.40
2023-05-28T11:17:47.794Z,13.30
2023-05-28T11:20:29.443Z,13.30
2023-05-28T11:22:56.852Z,13.00
2023-05-28T11:25:26.623Z,13.50
2023-05-28T11:27:54.959Z,13.40
2023-05-28T11:30:22.470Z,13.30
2023-05-28T11:32:51.265Z,13.50
2023-05-28T11:35:18.780Z,13.30
2023-05-28T11:37:47.149Z,13.20
2023-05-28T11:40:15.683Z,13.00
2023-05-28T11:42:44.954Z,12.80
2023-05-28T11:45:13.729Z,12.90
2023-05-28T11:47:43.464Z,13.00
2023-05-28T11:50:14.549Z,13.00
2023-05-28T11:52:42.049Z,13.20
2023-05-28T11:55:10.666Z,12.80
2023-05-28T11:57:39.744Z,12.60
2023-05-28T12:00:12.309Z,12.40
2023-05-28T12:02:54.989Z,12.50
2023-05-28T12:05:22.167Z,12.40
2023-05-28T12:07:53.797Z,12.60
2023-05-28T12:10:27.754Z,12.50
2023-05-28T12:12:57.950Z,12.40
2023-05-28T12:15:29.440Z,12.40
2023-05-28T12:18:04.141Z,12.20
2023-05-28T12:20:31.433Z,11.90
2023-05-28T12:23:09.588Z,12.00
2023-05-28T12:25:49.759Z,11.80
2023-05-28T12:28:19.640Z,11.80
2023-05-28T12:30:54.209Z,11.80
2023-05-28T12:33:22.631Z,12.20
2023-05-28T12:35:50.854Z,11.60
2023-05-28T12:38:19.621Z,11.60
2023-05-28T12:40:46.798Z,11.70
2023-05-28T12:43:13.865Z,11.70
2023-05-28T12:45:40.890Z,11.70
2023-05-28T12:48:09.693Z,11.70
2023-05-28T12:50:37.319Z,11.60
2023-05-28T12:53:07.095Z,11.60
2023-05-28T12:55:34.275Z,11.70
2023-05-28T12:58:01.764Z,11.80
2023-05-28T13:00:29.769Z,11.80
2023-05-28T13:02:56.815Z,11.80
2023-05-28T13:05:23.943Z,11.70
2023-05-28T13:07:50.885Z,11.50
2023-05-28T13:10:17.994Z,11.50
2023-05-28T13:12:45.285Z,11.40
2023-05-28T13:15:12.425Z,11.40
2023-05-28T13:17:39.457Z,11.30
2023-05-28T13:20:11.469Z,11.40
2023-05-28T13:22:39.095Z,11.50
2023-05-28T13:25:10.341Z,11.60
2023-05-28T13:27:37.402Z,11.70
2023-05-28T13:30:04.771Z,11.60
2023-05-28T13:32:31.846Z,11.60
2023-05-28T13:34:58.891Z,11.70
2023-05-28T13:37:27.234Z,11.60
2023-05-28T13:39:54.483Z,11.70
2023-05-28T13:42:22.069Z,11.80
2023-05-28T13:44:49.975Z,11.70
2023-05-28T13:47:18.506Z,12.00
2023-05-28T13:49:45.493Z,11.50
2023-05-28T13:52:12.528Z,11.50
2023-05-28T13:54:42.177Z,11.80
2023-05-28T13:57:10.338Z,11.70
2023-05-28T13:59:37.295Z,11.70
2023-05-28T14:02:05.429Z,11.80
2023-05-28T14:04:33.104Z,11.80
2023-05-28T14:07:00.525Z,11.90
2023-05-28T14:09:27.843Z,12.00
2023-05-28T14:14:26.929Z,11.80
2023-05-28T14:16:54.440Z,11.70
2023-05-28T14:19:22.183Z,11.70
2023-05-28T14:21:49.625Z,11.70
2023-05-28T14:24:17.228Z,11.70
2023-05-28T14:26:44.370Z,11.80
2023-05-28T14:29:11.534Z,11.80
2023-05-28T14:31:38.807Z,11.80
2023-05-28T14:34:06.258Z,11.80
2023-05-28T14:36:33.178Z,11.80
2023-05-28T14:39:00.678Z,12.00
2023-05-28T14:41:27.832Z,11.70
2023-05-28T14:43:54.776Z,11.80
2023-05-28T14:46:22.155Z,11.90
2023-05-28T14:48:49.337Z,11.90
2023-05-28T14:51:16.492Z,11.90
2023-05-28T14:53:43.700Z,11.90
2023-05-28T14:56:11.116Z,11.90
2023-05-28T14:58:38.156Z,11.80
2023-05-28T15:01:05.192Z,11.90
2023-05-28T15:03:33.122Z,11.80
2023-05-28T15:06:00.606Z,12.10
2023-05-28T15:08:27.654Z,12.30
2023-05-28T15:10:54.764Z,12.40
2023-05-28T15:13:21.858Z,12.40
2023-05-28T15:15:49.226Z,12.40
2023-05-28T15:18:16.627Z,12.30
2023-05-28T15:20:43.901Z,12.30
2023-05-28T15:23:11.231Z,12.30
2023-05-28T15:25:38.635Z,12.40
2023-05-28T15:28:06.140Z,12.40
2023-05-28T15:30:33.281Z,12.50
2023-05-28T15:33:02.094Z,12.50
2023-05-28T15:35:29.816Z,12.50
2023-05-28T15:37:57.707Z,12.70
2023-05-28T15:40:25.162Z,12.90
2023-05-28T15:42:57.925Z,13.00
2023-05-28T15:45:25.688Z,13.70
2023-05-28T15:47:52.837Z,13.20
2023-05-28T15:50:19.904Z,13.20
2023-05-28T15:52:47.508Z,13.50
2023-05-28T15:55:14.881Z,13.80
2023-05-28T15:57:42.180Z,13.90
2023-05-28T16:00:10.239Z,14.00
2023-05-28T16:02:42.214Z,14.00
2023-05-28T16:05:10.324Z,13.90
2023-05-28T16:07:37.677Z,14.10
2023-05-28T16:10:05.511Z,14.30
2023-05-28T16:12:35.333Z,14.50
2023-05-28T16:15:08.826Z,14.60
2023-05-28T16:17:40.309Z,14.80
2023-05-28T16:20:10.511Z,15.10
2023-05-28T16:22:39.623Z,15.10
2023-05-28T16:25:07.958Z,15.20
2023-05-28T16:27:36.453Z,15.20
2023-05-28T16:30:06.017Z,15.40
2023-05-28T16:32:33.950Z,15.60
2023-05-28T16:35:02.397Z,15.70
2023-05-28T16:37:30.095Z,16.20
2023-05-28T16:39:57.564Z,15.70
2023-05-28T16:42:25.489Z,15.80
2023-05-28T16:44:52.721Z,16.00
2023-05-28T16:47:20.269Z,16.10
2023-05-28T16:49:47.685Z,16.20
2023-05-28T16:52:15.410Z,16.50
2023-05-28T16:54:46.875Z,16.70
2023-05-28T16:57:14.741Z,16.90
2023-05-28T16:59:41.888Z,17.10
2023-05-28T17:02:10.753Z,17.40
2023-05-28T17:04:38.871Z,17.60
2023-05-28T17:07:09.127Z,17.80
2023-05-28T17:09:36.629Z,18.00
2023-05-28T17:12:04.328Z,18.20
2023-05-28T17:14:31.633Z,18.40
2023-05-28T17:16:59.938Z,18.70
2023-05-28T17:19:28.747Z,18.90
2023-05-28T17:21:56.281Z,19.00
2023-05-28T17:24:23.379Z,19.10
2023-05-28T17:26:52.318Z,19.40
2023-05-28T17:29:19.619Z,19.70
2023-05-28T17:31:46.646Z,19.90
2023-05-28T17:34:13.931Z,20.10
2023-05-28T17:36:40.980Z,20.30
2023-05-28T17:39:08.121Z,20.50
2023-05-28T17:41:35.870Z,20.70
2023-05-28T17:44:04.564Z,20.80
2023-05-28T17:46:39.849Z,21.00
2023-05-28T17:49:06.884Z,21.30
2023-05-28T17:51:34.256Z,21.30
2023-05-28T17:54:01.280Z,21.40
2023-05-28T17:56:28.509Z,21.60
2023-05-28T17:58:55.552Z,21.80
2023-05-28T18:01:22.532Z,21.90
2023-05-28T18:06:36.346Z,22.30
2023-05-28T18:09:05.832Z,22.40
2023-05-28T18:11:33.102Z,22.60
2023-05-28T18:14:01.478Z,22.80
2023-05-28T18:16:28.992Z,22.90
2023-05-28T18:19:02.424Z,23.00
2023-05-28T18:21:30.804Z,23.30
2023-05-28T18:24:10.343Z,23.50
2023-05-28T18:26:38.747Z,24.10
2023-05-28T18:29:06.519Z,24.10
2023-05-28T18:31:33.891Z,24.10
2023-05-28T18:34:03.390Z,24.30
2023-05-28T18:36:32.385Z,24.50
2023-05-28T18:39:00.054Z,24.60
2023-05-28T18:41:27.821Z,24.90
2023-05-28T18:43:55.411Z,25.00
2023-05-28T18:46:22.973Z,25.00
2023-05-28T18:48:50.588Z,25.30
2023-05-28T18:51:18.005Z,25.50
2023-05-28T18:53:45.324Z,25.80
2023-05-28T18:56:12.460Z,26.00
2023-05-28T18:58:39.405Z,26.30
2023-05-28T19:03:52.801Z,26.70
2023-05-28T19:06:21.845Z,26.70
2023-05-28T19:08:49.277Z,27.10
2023-05-28T19:11:17.533Z,27.30
2023-05-28T19:13:44.736Z,27.40
2023-05-28T19:16:12.029Z,27.60
2023-05-28T19:18:39.262Z,27.70
2023-05-28T19:21:07.507Z,27.90
2023-05-28T19:23:35.858Z,28.20
2023-05-28T19:26:03.325Z,28.30
2023-05-28T19:28:33.016Z,28.60
2023-05-28T19:31:00.656Z,28.80
2023-05-28T19:36:09.781Z,29.30
2023-05-28T19:38:37.448Z,29.40
2023-05-28T19:41:04.483Z,29.70
2023-05-28T19:43:31.837Z,30.00
2023-05-28T19:45:59.196Z,30.30
2023-05-28T19:51:08.601Z,30.70
2023-05-28T19:53:35.844Z,31.10
2023-05-28T19:56:03.073Z,31.50
2023-05-28T19:58:30.206Z,31.70
2023-05-28T20:00:57.349Z,32.00
2023-05-28T20:03:24.408Z,32.30
2023-05-28T20:05:51.466Z,32.70
2023-05-28T20:08:18.507Z,32.90
2023-05-28T20:10:45.424Z,33.30
2023-05-28T20:13:12.934Z,33.60
2023-05-28T20:18:30.162Z,34.00
2023-05-28T20:20:57.644Z,34.20
2023-05-28T20:23:25.476Z,34.50
2023-05-28T20:25:54.748Z,34.90
2023-05-28T20:28:21.955Z,35.20
2023-05-28T20:30:49.125Z,35.90
2023-05-28T20:33:16.402Z,36.50
2023-05-28T20:35:43.917Z,37.10
2023-05-28T20:38:12.009Z,37.80
2023-05-28T20:43:21.118Z,38.80
2023-05-28T20:45:50.265Z,39.00
2023-05-28T20:48:17.427Z,39.40
2023-05-28T20:50:44.755Z,40.30
2023-05-28T20:53:11.972Z,40.60
2023-05-28T21:01:16.658Z,41.40
2023-05-28T21:06:30.026Z,41.80
2023-05-28T21:08:58.552Z,42.00
2023-05-28T21:14:11.449Z,42.70
2023-05-28T21:16:38.612Z,42.80
2023-05-28T21:19:06.049Z,43.20
2023-05-28T21:21:33.421Z,43.30
2023-05-28T21:24:01.371Z,43.40
2023-05-28T21:29:12.896Z,43.90
2023-05-28T21:31:40.129Z,44.20
2023-05-28T21:34:07.244Z,44.10
2023-05-28T21:36:34.391Z,44.30
2023-05-28T21:39:01.651Z,44.40
2023-05-28T21:41:28.783Z,44.70
2023-05-28T21:43:55.942Z,44.90
2023-05-28T21:46:22.954Z,45.00
2023-05-28T21:48:50.166Z,45.20
2023-05-28T21:51:17.540Z,45.50
2023-05-28T21:53:44.567Z,45.50
2023-05-28T21:56:11.653Z,45.70
2023-05-28T21:58:38.773Z,46.00
2023-05-28T22:01:05.870Z,46.10
2023-05-28T22:03:33.177Z,46.50
2023-05-28T22:06:00.418Z,46.40
2023-05-28T22:08:27.680Z,46.80
2023-05-28T22:10:57.527Z,46.70
2023-05-28T22:13:26.064Z,47.00
2023-05-28T22:15:53.200Z,47.20
2023-05-28T22:18:20.451Z,47.40
2023-05-28T22:20:49.519Z,47.70
2023-05-28T22:23:17.611Z,47.80
2023-05-28T22:25:44.982Z,48.10
2023-05-28T22:28:12.121Z,48.20
2023-05-28T22:33:20.564Z,48.70
2023-05-28T22:35:47.729Z,48.80
2023-05-28T22:38:14.820Z,48.90
2023-05-28T22:40:41.872Z,49.20
2023-05-28T22:43:08.900Z,49.50
2023-05-28T22:45:36.033Z,49.70
2023-05-28T22:48:06.693Z,50.00
2023-05-28T22:50:33.976Z,50.10
2023-05-28T22:53:01.020Z,50.40
2023-05-28T22:55:29.792Z,50.60
2023-05-28T22:57:57.244Z,50.80
2023-05-28T23:00:25.144Z,51.10
2023-05-28T23:02:52.651Z,51.30
2023-05-28T23:05:19.909Z,51.50
2023-05-28T23:07:47.697Z,51.80
2023-05-28T23:10:14.809Z,52.10
2023-05-28T23:12:42.021Z,52.30
2023-05-28T23:15:09.627Z,52.60
2023-05-28T23:17:37.177Z,52.90
2023-05-28T23:20:12.653Z,53.10
2023-05-28T23:22:39.979Z,53.40
2023-05-28T23:25:07.320Z,53.50
2023-05-28T23:27:34.368Z,53.70
2023-05-28T23:30:03.727Z,54.00
2023-05-28T23:32:31.427Z,54.30
2023-05-28T23:34:58.691Z,54.60
2023-05-28T23:37:25.839Z,54.90
2023-05-28T23:39:52.879Z,55.00
2023-05-28T23:42:19.960Z,55.20
2023-05-28T23:44:47.065Z,55.30
2023-05-28T23:47:14.433Z,55.60
2023-05-28T23:49:41.528Z,55.60
2023-05-28T23:52:09.279Z,55.80
2023-05-28T23:54:36.385Z,56.00
2023-05-28T23:57:03.507Z,56.10
2023-05-28T23:59:30.662Z,56.90
